Time;durP1;ratioP1;P1;durP2;ratioP2;P2;SDS_P1;SDS_P2;PMS_P1;PMS_P2;Temp;Humidity;BMP_temperature;BMP_pressure;BME280_temperature;BME280_humidity;BME280_pressure;Samples;Min_cycle;Max_cycle;Signal;HPM_P1;HPM_P2
2022/07/29 00:02:09;;;;;;;9.90;5.90;;;12.30;99.90;11.60;101072;;;;570746;247;24112;-81
2022/07/29 00:04:37;;;;;;;11.87;5.93;;;12.30;99.90;11.60;101073;;;;570703;247;24099;-80
2022/07/29 00:07:09;;;;;;;9.83;5.00;;;12.30;99.90;11.60;101067;;;;586866;244;24051;-81
2022/07/29 00:09:33;;;;;;;7.47;5.63;;;12.30;99.90;11.60;101065;;;;575719;248;24098;-80
2022/07/29 00:12:04;;;;;;;6.40;5.07;;;12.20;99.90;11.50;101070;;;;577918;244;24137;-81
2022/07/29 00:14:29;;;;;;;8.70;4.80;;;12.20;99.90;11.50;101063;;;;570538;247;24099;-82
2022/07/29 00:16:57;;;;;;;6.07;4.73;;;12.20;99.90;11.50;101069;;;;570428;248;24088;-82
2022/07/29 00:19:26;;;;;;;9.67;4.63;;;12.20;99.90;11.50;101065;;;;569720;249;24082;-81
2022/07/29 00:21:53;;;;;;;7.10;4.13;;;12.20;99.90;11.50;101056;;;;564755;249;24105;-81
2022/07/29 00:24:21;;;;;;;8.43;4.80;;;12.20;99.90;11.50;101064;;;;564838;249;24173;-82
2022/07/29 00:26:49;;;;;;;5.77;4.33;;;12.20;99.90;11.50;101063;;;;564876;249;24126;-82
2022/07/29 00:29:17;;;;;;;7.80;4.50;;;12.20;99.90;11.50;101069;;;;586670;244;24125;-82
2022/07/29 00:31:49;;;;;;;5.53;4.10;;;12.10;99.90;11.50;101072;;;;565838;249;24131;-83
2022/07/29 00:36:59;;;;;;;7.97;5.30;;;12.10;99.90;11.40;101073;;;;563815;249;24066;-83
2022/07/29 00:39:27;;;;;;;7.80;4.70;;;12.10;99.90;11.40;101077;;;;564480;249;24082;-80
2022/07/29 00:41:55;;;;;;;10.83;4.70;;;12.10;99.90;11.30;101063;;;;566929;249;24096;-82
2022/07/29 00:44:23;;;;;;;7.50;4.30;;;12.00;99.90;11.40;101066;;;;564516;249;24116;-81
2022/07/29 00:46:51;;;;;;;7.20;4.10;;;12.00;99.90;11.40;101066;;;;564877;249;24089;-82
2022/07/29 00:49:19;;;;;;;5.60;4.13;;;12.10;99.90;11.40;101072;;;;564937;249;24133;-81
2022/07/29 00:51:49;;;;;;;6.90;3.80;;;12.10;99.90;11.40;101071;;;;566227;248;24187;-82
2022/07/29 00:54:18;;;;;;;6.17;4.03;;;12.10;99.90;11.50;101070;;;;579499;244;24076;-80
2022/07/29 00:56:43;;;;;;;6.87;3.80;;;12.10;99.90;11.50;101073;;;;565536;250;24127;-81
2022/07/29 00:59:11;;;;;;;8.27;4.33;;;12.10;99.90;11.50;101064;;;;571315;248;24103;-82
2022/07/29 01:01:39;;;;;;;5.57;4.10;;;12.20;99.90;11.50;101071;;;;567311;249;24164;-82
2022/07/29 01:04:07;;;;;;;4.80;4.30;;;12.20;99.90;11.50;101074;;;;566224;249;24096;-82
2022/07/29 01:06:38;;;;;;;14.77;4.80;;;12.20;99.90;11.60;101079;;;;566287;249;24096;-82
2022/07/29 01:09:03;;;;;;;8.97;4.30;;;12.20;99.90;11.60;101076;;;;563843;246;24151;-81
2022/07/29 01:11:35;;;;;;;13.60;4.63;;;12.20;99.90;11.60;101075;;;;564910;249;24102;-82
2022/07/29 01:14:00;;;;;;;6.90;4.40;;;12.30;99.90;11.60;101075;;;;563502;249;24141;-82
2022/07/29 01:16:34;;;;;;;8.27;4.50;;;12.30;99.90;11.70;101080;;;;566009;249;24122;-82
2022/07/29 01:19:02;;;;;;;9.60;4.40;;;12.30;99.90;11.70;101079;;;;563901;249;24144;-82
2022/07/29 01:21:54;;;;;;;5.87;4.47;;;12.40;99.90;11.80;101088;;;;574271;249;24090;-83
2022/07/29 01:24:40;;;;;;;9.83;3.93;;;12.40;99.90;11.80;101085;;;;574773;249;24089;-82
2022/07/29 01:27:33;;;;;;;10.40;5.10;;;12.50;99.90;11.80;101080;;;;584832;244;24055;-83
2022/07/29 01:30:05;;;;;;;8.30;4.77;;;12.50;99.90;11.80;101082;;;;567034;249;24099;-81
2022/07/29 01:32:30;;;;;;;12.93;4.90;;;12.40;99.90;11.80;101080;;;;575606;248;24089;-82
2022/07/29 01:35:04;;;;;;;8.50;4.83;;;12.40;99.90;11.70;101079;;;;564506;250;24146;-82
2022/07/29 01:37:53;;;;;;;6.47;4.93;;;12.40;99.90;11.70;101084;;;;562899;249;24152;-83
2022/07/29 01:40:25;;;;;;;9.47;4.67;;;12.40;99.90;11.70;101079;;;;577940;244;24123;-80
2022/07/29 01:42:53;;;;;;;8.30;5.37;;;12.30;99.90;11.70;101067;;;;565458;249;24089;-82
2022/07/29 01:45:23;;;;;;;5.70;4.13;;;12.30;99.90;11.70;101070;;;;575205;244;24082;-81
2022/07/29 01:48:12;;;;;;;7.07;5.13;;;12.30;99.90;11.60;101071;;;;565753;248;24187;-82
2022/07/29 01:50:49;;;;;;;10.73;5.00;;;12.30;99.90;11.60;101075;;;;565590;249;24088;-81
2022/07/29 01:53:35;;;;;;;6.53;4.63;;;12.20;99.90;11.60;101078;;;;565849;249;24131;-82
2022/07/29 01:56:02;;;;;;;14.00;4.97;;;12.20;99.90;11.50;101073;;;;572890;249;24166;-80
2022/07/29 01:58:30;;;;;;;11.47;4.97;;;12.20;99.90;11.50;101073;;;;574392;249;24145;-81
2022/07/29 02:00:58;;;;;;;7.33;4.77;;;12.20;99.90;11.50;101063;;;;563363;249;24162;-81
2022/07/29 02:03:26;;;;;;;7.70;4.93;;;12.10;99.90;11.40;101068;;;;575513;248;24123;-81
2022/07/29 02:05:54;;;;;;;10.50;4.67;;;12.10;99.90;11.40;101064;;;;566830;249;24133;-81
2022/07/29 02:08:23;;;;;;;7.37;4.27;;;12.10;99.90;11.40;101067;;;;575202;248;24085;-80
2022/07/29 02:10:51;;;;;;;10.47;5.40;;;12.10;99.90;11.40;101074;;;;566487;249;24090;-81
2022/07/29 02:13:19;;;;;;;7.30;4.53;;;12.10;99.90;11.40;101069;;;;566141;249;24112;-81
2022/07/29 02:15:47;;;;;;;7.77;4.90;;;12.10;99.90;11.40;101062;;;;574805;249;24124;-81
2022/07/29 02:18:17;;;;;;;7.57;5.23;;;12.10;99.90;11.40;101066;;;;566341;249;24109;-81
2022/07/29 02:20:49;;;;;;;7.40;4.40;;;12.10;99.90;11.40;101066;;;;575130;248;24126;-81
2022/07/29 02:23:13;;;;;;;7.70;5.00;;;12.00;99.90;11.30;101062;;;;566089;249;24125;-81
2022/07/29 02:25:41;;;;;;;6.40;4.87;;;12.00;99.90;11.30;101068;;;;564155;249;24067;-81
2022/07/29 02:28:12;;;;;;;7.20;4.90;;;12.00;99.90;11.30;101070;;;;566416;249;24096;-81
2022/07/29 02:30:37;;;;;;;7.67;5.20;;;11.90;99.90;11.20;101067;;;;574667;248;24137;-82
2022/07/29 02:33:05;;;;;;;5.63;4.40;;;11.90;99.90;11.20;101059;;;;563717;249;24109;-82
2022/07/29 02:35:33;;;;;;;5.97;4.80;;;11.90;99.90;11.20;101062;;;;563500;249;24104;-81
2022/07/29 02:40:47;;;;;;;8.43;5.63;;;11.80;99.90;11.10;101060;;;;574306;249;25350;-82
2022/07/29 02:43:14;;;;;;;5.77;4.60;;;11.80;99.90;11.20;101067;;;;564532;249;24148;-81
2022/07/29 02:45:46;;;;;;;8.10;4.80;;;11.80;99.90;11.10;101067;;;;565724;249;24228;-80
2022/07/29 02:48:11;;;;;;;7.40;5.13;;;11.80;99.90;11.20;101063;;;;565736;249;24085;-80
2022/07/29 02:50:40;;;;;;;5.83;4.83;;;11.80;99.90;11.20;101071;;;;563148;249;24105;-82
2022/07/29 02:53:16;;;;;;;6.50;4.87;;;11.80;99.90;11.20;101067;;;;562932;249;25181;-81
2022/07/29 02:55:47;;;;;;;8.37;4.70;;;11.80;99.90;11.20;101068;;;;565914;249;24100;-80
2022/07/29 02:58:33;;;;;;;6.60;4.67;;;11.80;99.90;11.20;101066;;;;565764;249;24147;-81
2022/07/29 03:01:04;;;;;;;7.30;4.93;;;11.80;99.90;11.20;101065;;;;574159;249;24110;-82
2022/07/29 03:03:32;;;;;;;10.27;5.57;;;11.80;99.90;11.20;101064;;;;574215;249;24164;-81
2022/07/29 03:06:00;;;;;;;6.87;4.90;;;11.80;99.90;11.20;101068;;;;563098;249;24180;-80
2022/07/29 03:08:30;;;;;;;7.83;5.07;;;11.80;99.90;11.20;101061;;;;574251;248;24148;-82
2022/07/29 03:10:55;;;;;;;8.80;4.73;;;11.90;99.90;11.30;101072;;;;565714;249;24165;-83
2022/07/29 03:13:23;;;;;;;5.93;4.77;;;11.90;99.90;11.40;101063;;;;565738;249;24101;-82
2022/07/29 03:15:52;;;;;;;7.07;5.20;;;12.10;99.90;11.50;101059;;;;567269;249;25161;-81
2022/07/29 03:18:21;;;;;;;7.80;4.87;;;12.30;99.90;11.70;101061;;;;565324;249;24085;-79
2022/07/29 03:20:49;;;;;;;11.70;5.53;;;12.20;99.90;11.80;101065;;;;575268;248;24081;-80
2022/07/29 03:23:23;;;;;;;9.87;5.83;;;12.40;99.90;11.90;101067;;;;565610;249;24108;-82
2022/07/29 03:25:50;;;;;;;9.40;5.23;;;12.50;99.90;12.00;101063;;;;566522;249;24122;-81
2022/07/29 03:28:15;;;;;;;6.37;5.40;;;12.60;99.90;12.10;101062;;;;566395;249;24116;-81
2022/07/29 03:30:43;;;;;;;10.03;5.40;;;12.70;99.90;12.20;101072;;;;565393;249;24075;-82
2022/07/29 03:33:11;;;;;;;6.20;4.80;;;12.80;99.90;12.30;101070;;;;565232;249;25117;-82
2022/07/29 03:35:39;;;;;;;7.43;5.63;;;13.00;99.90;12.40;101065;;;;566462;249;24093;-81
2022/07/29 03:38:07;;;;;;;6.73;5.80;;;13.10;99.90;12.50;101067;;;;574485;247;24101;-81
2022/07/29 03:40:41;;;;;;;7.07;5.40;;;13.20;99.90;12.70;101070;;;;566061;249;24131;-82
2022/07/29 03:43:09;;;;;;;10.67;5.43;;;13.30;99.90;12.80;101077;;;;586154;243;24068;-80
2022/07/29 03:45:36;;;;;;;8.83;5.43;;;13.40;99.90;12.90;101071;;;;566067;249;24095;-81
2022/07/29 03:48:07;;;;;;;7.90;5.77;;;13.60;99.90;13.10;101077;;;;577788;244;24051;-82
2022/07/29 03:50:35;;;;;;;11.53;5.80;;;13.70;99.90;13.30;101073;;;;575227;244;24074;-82
2022/07/29 03:53:03;;;;;;;7.03;6.20;;;13.90;99.90;13.40;101081;;;;562145;249;24114;-81
2022/07/29 03:55:31;;;;;;;9.33;6.03;;;14.10;99.90;13.60;101083;;;;586656;243;24064;-83
2022/07/29 03:58:00;;;;;;;11.10;5.93;;;14.30;99.90;13.60;101080;;;;565666;249;24122;-82
2022/07/29 04:00:28;;;;;;;8.67;6.00;;;14.40;99.90;13.70;101080;;;;563467;249;24096;-82
2022/07/29 04:02:57;;;;;;;8.73;6.30;;;14.40;99.90;13.70;101081;;;;565859;249;24108;-82
2022/07/29 04:05:25;;;;;;;13.63;7.20;;;14.40;99.90;13.80;101084;;;;565758;249;24093;-83
2022/07/29 04:07:53;;;;;;;17.00;6.27;;;14.40;99.90;13.80;101088;;;;564653;249;24120;-83
2022/07/29 04:10:24;;;;;;;26.00;7.43;;;14.50;99.90;13.80;101099;;;;564579;249;24117;-83
2022/07/29 04:12:52;;;;;;;49.47;9.30;;;14.50;99.90;13.90;101092;;;;573959;249;24130;-82
2022/07/29 04:15:17;;;;;;;74.40;9.13;;;14.50;99.90;14.00;101084;;;;565833;249;24097;-82
2022/07/29 04:17:45;;;;;;;72.63;12.23;;;14.60;99.90;14.60;101090;;;;564527;249;24143;-83
2022/07/29 04:20:13;;;;;;;107.37;12.37;;;15.10;99.90;16.10;101091;;;;564543;249;24109;-83
2022/07/29 04:22:43;;;;;;;104.90;12.77;;;16.50;99.90;17.80;101103;;;;569801;249;24124;-83
2022/07/29 04:25:08;;;;;;;65.77;10.37;;;18.30;99.90;19.50;101107;;;;566349;247;24088;-84
2022/07/29 04:27:59;;;;;;;32.33;7.40;;;20.10;99.90;19.90;101096;;;;567447;249;24067;-83
2022/07/29 04:30:05;;;;;;;42.63;6.87;;;20.80;99.90;20.40;101105;;;;565827;249;24202;-83
2022/07/29 04:32:32;;;;;;;44.80;7.03;;;21.30;99.90;20.50;101105;;;;566899;249;24171;-82
2022/07/29 04:35:01;;;;;;;43.00;7.10;;;22.10;99.90;21.20;101103;;;;565576;249;24129;-83
2022/07/29 04:37:30;;;;;;;34.10;5.13;;;22.70;99.90;21.80;101099;;;;565440;249;24086;-82
2022/07/29 04:39:58;;;;;;;17.33;3.40;;;22.60;99.90;22.20;101103;;;;574893;247;24146;-82
2022/07/29 04:42:26;;;;;;;22.00;3.83;;;23.10;99.90;23.30;101101;;;;565515;249;24078;-82
2022/07/29 04:44:53;;;;;;;14.60;3.70;;;24.10;99.90;25.10;101107;;;;564960;249;24086;-81
2022/07/29 04:47:21;;;;;;;4.97;1.83;;;25.80;99.90;27.30;101110;;;;564706;249;24155;-81
2022/07/29 04:49:49;;;;;;;5.03;1.53;;;27.70;99.90;28.50;101102;;;;564904;249;24229;-81
2022/07/29 04:52:21;;;;;;;5.90;1.50;;;29.40;99.10;29.80;101107;;;;564817;249;24128;-81
2022/07/29 04:54:45;;;;;;;3.95;1.40;;;30.70;92.80;31.00;101109;;;;564725;249;24148;-82
2022/07/29 04:57:13;;;;;;;1.67;1.23;;;32.00;88.40;31.70;101107;;;;564760;249;23130;-82
2022/07/29 04:59:42;;;;;;;1.95;1.05;;;32.90;72.60;31.60;101112;;;;564703;249;24158;-81
2022/07/29 05:02:10;;;;;;;2.80;1.23;;;32.10;69.20;30.50;101109;;;;564686;249;23151;-82
2022/07/29 05:04:38;;;;;;;1.27;1.17;;;32.00;69.80;30.20;101109;;;;564531;249;23108;-83
2022/07/29 05:07:09;;;;;;;4.00;1.40;;;31.50;70.70;31.60;101116;;;;564621;249;23113;-80
2022/07/29 05:09:34;;;;;;;6.03;1.52;;;32.50;69.70;32.50;101121;;;;565220;249;24203;-83
2022/07/29 05:12:02;;;;;;;5.53;1.60;;;33.40;67.10;32.10;101124;;;;566281;249;23097;-83
2022/07/29 05:14:30;;;;;;;4.15;1.67;;;33.30;64.20;31.00;101130;;;;566023;249;23175;-81
2022/07/29 05:17:01;;;;;;;4.75;1.90;;;32.30;63.80;29.50;101137;;;;564504;249;23103;-81
2022/07/29 05:19:26;;;;;;;3.58;1.48;;;31.10;66.50;28.70;101130;;;;565753;249;23120;-81
2022/07/29 05:21:54;;;;;;;9.80;1.23;;;29.20;69.90;28.00;101131;;;;564486;249;23097;-81
2022/07/29 05:24:22;;;;;;;16.77;1.70;;;29.10;69.80;27.10;101137;;;;564837;249;23106;-83
2022/07/29 05:26:50;;;;;;;6.40;1.43;;;28.30;72.10;26.30;101133;;;;564893;249;23087;-81
2022/07/29 05:29:18;;;;;;;6.57;1.57;;;27.40;74.60;25.90;101135;;;;564811;249;24171;-82
2022/07/29 05:31:46;;;;;;;2.93;1.50;;;26.80;77.30;25.60;101135;;;;564877;249;23116;-81
2022/07/29 05:34:14;;;;;;;3.70;1.57;;;26.50;78.50;25.50;101137;;;;564851;249;24112;-81
2022/07/29 05:36:42;;;;;;;2.77;1.70;;;26.20;79.80;26.00;101137;;;;564981;247;23127;-81
2022/07/29 05:39:10;;;;;;;4.03;1.73;;;26.40;80.60;26.50;101133;;;;566337;249;23084;-82
2022/07/29 05:41:38;;;;;;;5.83;2.17;;;26.90;79.50;28.40;101140;;;;575226;247;23104;-81
2022/07/29 05:44:06;;;;;;;2.87;1.60;;;28.60;78.30;31.00;101139;;;;558618;253;23123;-81
2022/07/29 05:46:34;;;;;;;9.88;1.48;;;31.00;73.30;33.20;101147;;;;568992;248;23093;-82
2022/07/29 05:49:02;;;;;;;2.00;1.35;;;33.40;67.70;35.20;101141;;;;564961;253;23150;-82
2022/07/29 05:51:30;;;;;;;3.60;1.23;;;35.40;60.70;36.50;101137;;;;556469;254;24161;-81
2022/07/29 05:53:57;;;;;;;4.80;1.70;;;36.90;55.90;37.60;101138;;;;556788;254;23111;-82
2022/07/29 05:56:29;;;;;;;2.72;1.05;;;38.10;52.30;38.10;101140;;;;556310;254;23140;-83
2022/07/29 05:58:53;;;;;;;1.48;1.37;;;38.90;49.50;38.60;101140;;;;565645;253;23148;-82
2022/07/29 06:01:22;;;;;;;2.50;0.88;;;39.90;46.90;39.10;101140;;;;555795;244;23150;-82
2022/07/29 06:03:51;;;;;;;1.73;1.62;;;40.10;46.00;39.20;101143;;;;562131;253;23210;-81
2022/07/29 06:06:18;;;;;;;1.52;1.30;;;40.10;46.00;39.20;101133;;;;566860;249;23109;-82
2022/07/29 06:08:46;;;;;;;4.30;1.45;;;40.10;44.80;39.00;101143;;;;590185;239;23043;-84
2022/07/29 06:11:14;;;;;;;1.92;1.10;;;40.00;44.90;39.10;101140;;;;599974;238;23034;-83
2022/07/29 06:13:42;;;;;;;1.10;0.88;;;40.10;44.00;39.70;101144;;;;599815;238;23081;-83
2022/07/29 06:16:10;;;;;;;1.37;0.90;;;40.40;43.60;39.70;101146;;;;598686;238;23036;-83
2022/07/29 06:18:38;;;;;;;3.00;0.88;;;40.60;43.20;40.20;101142;;;;562444;249;23131;-82
2022/07/29 06:21:12;;;;;;;12.13;1.70;;;40.90;43.70;41.10;101144;;;;566767;249;23119;-82
2022/07/29 06:23:38;;;;;;;3.28;1.30;;;42.40;40.90;41.70;101160;;;;575730;244;23091;-83
2022/07/29 06:26:10;;;;;;;0.98;0.93;;;42.30;40.90;41.30;101160;;;;559982;253;23141;-83
2022/07/29 06:28:34;;;;;;;1.75;1.15;;;42.30;40.80;40.80;101160;;;;560130;252;23142;-82
2022/07/29 06:31:02;;;;;;;9.88;2.12;;;41.80;41.30;41.10;101162;;;;560530;252;23122;-84
2022/07/29 06:33:30;;;;;;;2.72;1.00;;;42.00;42.10;41.10;101164;;;;560553;252;23091;-83
2022/07/29 06:35:58;;;;;;;1.30;0.90;;;42.10;40.40;40.80;101169;;;;564375;248;23062;-83
2022/07/29 06:38:26;;;;;;;3.67;0.70;;;41.70;40.80;41.00;101169;;;;567950;249;24188;-83
2022/07/29 06:41:00;;;;;;;2.05;0.90;;;41.80;40.30;41.00;101170;;;;567287;249;23075;-83
2022/07/29 06:43:40;;;;;;;0.95;0.95;;;41.80;41.10;41.10;101166;;;;588580;238;23056;-82
2022/07/29 06:46:06;;;;;;;9.50;1.65;;;42.10;40.20;41.50;101164;;;;588678;241;23045;-81
2022/07/29 06:48:34;;;;;;;6.10;1.10;;;42.10;40.00;42.50;101170;;;;582895;239;23098;-81
2022/07/29 06:51:02;;;;;;;2.58;0.90;;;42.90;40.90;43.80;101177;;;;567314;247;23074;-80
2022/07/29 06:53:32;;;;;;;3.12;0.80;;;43.90;39.00;44.20;101173;;;;571904;247;24099;-80
2022/07/29 06:56:01;;;;;;;1.00;0.90;;;44.50;37.60;43.60;101176;;;;567391;252;23103;-79
2022/07/29 06:58:25;;;;;;;4.15;1.00;;;44.40;37.70;43.10;101176;;;;580259;244;23070;-79
2022/07/29 07:00:53;;;;;;;2.22;0.70;;;44.10;37.70;42.30;101180;;;;565111;246;24133;-79
2022/07/29 07:03:21;;;;;;;1.05;0.90;;;43.70;38.20;40.10;101177;;;;567723;246;35158;-82
2022/07/29 07:05:53;;;;;;;1.40;1.00;;;40.20;41.10;38.20;101179;;;;575454;247;23093;-80
2022/07/29 07:08:19;;;;;;;2.72;0.80;;;39.70;42.20;38.60;101169;;;;604551;236;24137;-75
2022/07/29 07:10:51;;;;;;;2.00;0.90;;;40.20;42.20;39.80;101175;;;;572783;246;23151;-79
2022/07/29 07:13:16;;;;;;;2.83;0.90;;;40.10;42.10;40.50;101179;;;;582741;242;24277;-77
2022/07/29 07:15:43;;;;;;;2.95;1.10;;;40.90;41.00;39.10;101184;;;;564480;247;35177;-79
2022/07/29 07:18:15;;;;;;;2.50;0.52;;;40.10;41.00;38.20;101177;;;;594231;236;23050;-76
2022/07/29 07:20:39;;;;;;;0.82;0.60;;;39.30;41.90;38.20;101181;;;;572694;246;23182;-75
2022/07/29 07:23:07;;;;;;;2.30;0.65;;;39.00;42.20;36.90;101183;;;;572857;246;23084;-78
2022/07/29 07:25:35;;;;;;;2.50;0.80;;;38.20;43.10;34.50;101182;;;;580740;247;23152;-77
2022/07/29 07:28:03;;;;;;;1.95;0.80;;;36.30;44.60;33.40;101172;;;;591919;236;34856;-75
2022/07/29 07:30:30;;;;;;;1.62;0.80;;;34.90;46.90;34.50;101179;;;;566846;248;23184;-76
2022/07/29 07:32:58;;;;;;;1.83;0.77;;;35.10;46.80;35.30;101179;;;;572838;246;23139;-74
2022/07/29 07:35:30;;;;;;;2.58;0.52;;;36.20;45.60;36.00;101175;;;;574496;246;23222;-78
2022/07/29 07:37:55;;;;;;;1.80;0.65;;;36.20;45.60;36.00;101176;;;;574296;246;26317;-79
2022/07/29 07:40:23;;;;;;;0.68;0.62;;;36.40;44.90;35.10;101174;;;;574620;246;23071;-76
2022/07/29 07:42:51;;;;;;;0.75;0.70;;;35.90;45.10;34.60;101179;;;;574516;246;24099;-75
2022/07/29 07:45:19;;;;;;;1.37;0.60;;;35.50;46.20;34.60;101169;;;;574320;246;23161;-76
2022/07/29 07:47:47;;;;;;;1.00;0.70;;;35.20;46.30;33.30;101171;;;;574120;246;23131;-75
2022/07/29 07:50:17;;;;;;;4.57;0.90;;;34.50;47.00;33.30;101171;;;;574502;246;23095;-74
2022/07/29 07:52:52;;;;;;;1.95;0.55;;;34.00;48.20;34.40;101168;;;;574375;246;23090;-78
2022/07/29 07:55:20;;;;;;;9.75;1.08;;;34.60;48.20;35.10;101173;;;;574220;246;23154;-75
2022/07/29 07:57:48;;;;;;;4.40;0.62;;;35.30;46.80;35.70;101175;;;;574206;246;24073;-75
2022/07/29 08:00:16;;;;;;;0.85;0.45;;;36.00;45.00;35.80;101182;;;;572782;245;23105;-74
2022/07/29 08:02:44;;;;;;;0.62;0.60;;;36.40;45.00;36.10;101176;;;;575901;245;24107;-81
2022/07/29 08:05:13;;;;;;;2.58;0.60;;;36.60;44.50;35.60;101174;;;;575041;246;23094;-79
2022/07/29 08:07:42;;;;;;;2.90;0.60;;;36.50;44.60;35.90;101174;;;;575029;246;23136;-79
2022/07/29 08:10:07;;;;;;;0.73;0.50;;;36.60;44.90;35.70;101177;;;;583347;246;24125;-78
2022/07/29 08:12:35;;;;;;;4.15;0.73;;;36.50;44.70;35.00;101171;;;;570585;245;35005;-81
2022/07/29 08:15:07;;;;;;;5.65;1.15;;;36.00;45.50;35.20;101183;;;;590043;238;23059;-76
2022/07/29 08:17:31;;;;;;;3.97;1.02;;;35.80;46.30;36.20;101182;;;;592258;238;23040;-77
2022/07/29 08:20:00;;;;;;;0.55;0.55;;;37.70;43.40;37.50;101197;;;;592435;238;23047;-80
2022/07/29 08:22:28;;;;;;;0.40;0.40;;;38.20;42.70;37.50;101183;;;;592282;238;23040;-80
2022/07/29 08:24:56;;;;;;;0.95;0.50;;;38.20;42.60;37.70;101179;;;;592763;238;24081;-77
2022/07/29 08:27:26;;;;;;;5.05;0.90;;;38.50;42.50;37.90;101183;;;;592647;238;23242;-80
2022/07/29 08:29:56;;;;;;;1.60;0.68;;;38.70;42.60;39.60;101190;;;;592728;238;23072;-77
2022/07/29 08:32:20;;;;;;;0.40;0.40;;;39.80;41.10;39.90;101191;;;;592234;238;23046;-80
2022/07/29 08:34:48;;;;;;;0.85;0.50;;;40.60;40.10;38.80;101190;;;;592541;238;23033;-78
2022/07/29 08:37:16;;;;;;;0.60;0.50;;;40.10;39.60;38.30;101193;;;;581412;243;23106;-76
2022/07/29 08:39:44;;;;;;;1.70;0.60;;;39.30;41.20;40.20;101199;;;;581320;243;23093;-80
2022/07/29 08:42:14;;;;;;;27.35;3.08;;;40.50;39.40;41.00;101191;;;;576936;244;23063;-81
2022/07/29 08:44:39;;;;;;;2.70;0.60;;;41.60;38.10;41.90;101189;;;;576460;245;23115;-79
2022/07/29 08:47:07;;;;;;;2.00;0.65;;;42.50;37.40;42.80;101198;;;;585551;242;23097;-79
2022/07/29 08:49:35;;;;;;;1.08;0.68;;;43.50;37.00;42.90;101198;;;;576809;245;23135;-81
2022/07/29 08:52:03;;;;;;;0.65;0.55;;;44.00;36.00;41.80;101193;;;;576796;245;23088;-81
2022/07/29 08:54:31;;;;;;;1.20;0.60;;;43.40;36.40;40.70;101196;;;;576589;245;23106;-80
2022/07/29 08:56:59;;;;;;;1.58;0.73;;;42.30;36.40;40.80;101203;;;;576672;245;23082;-81
2022/07/29 08:59:27;;;;;;;0.93;0.60;;;42.10;35.60;40.20;101200;;;;561927;252;23167;-82
2022/07/29 09:01:55;;;;;;;2.05;0.77;;;41.70;35.80;40.10;101202;;;;576442;245;23051;-80
2022/07/29 09:04:23;;;;;;;0.55;0.55;;;41.40;36.10;41.10;101195;;;;551218;255;23113;-80
2022/07/29 09:06:55;;;;;;;0.50;0.50;;;42.70;35.00;41.80;101209;;;;552914;256;23202;-77
2022/07/29 09:09:24;;;;;;;0.73;0.57;;;43.10;34.50;42.20;101203;;;;553104;255;23125;-79
2022/07/29 09:11:49;;;;;;;1.75;0.50;;;43.10;35.00;41.90;101197;;;;561531;254;23209;-80
2022/07/29 09:14:17;;;;;;;0.75;0.70;;;43.10;34.70;42.30;101203;;;;573919;244;23120;-81
2022/07/29 09:16:45;;;;;;;4.95;1.05;;;43.40;35.90;42.70;101214;;;;554176;255;23219;-81
2022/07/29 09:19:28;;;;;;;0.50;0.50;;;43.90;34.60;42.00;101198;;;;561925;255;23203;-81
2022/07/29 09:21:58;;;;;;;1.08;0.73;;;43.60;34.90;42.00;101193;;;;558683;252;24177;-78
2022/07/29 09:24:35;;;;;;;12.37;1.90;;;43.40;36.40;41.00;101196;;;;567255;247;23171;-81
2022/07/29 09:27:03;;;;;;;7.68;1.45;;;42.70;36.70;41.30;101198;;;;570769;244;23038;-80
2022/07/29 09:29:31;;;;;;;0.75;0.68;;;42.40;37.30;41.00;101198;;;;583484;244;23117;-81
2022/07/29 09:31:59;;;;;;;4.03;1.10;;;42.40;37.10;39.80;101199;;;;569019;247;23081;-80
2022/07/29 09:34:28;;;;;;;6.68;0.88;;;41.60;37.40;37.40;101202;;;;574641;247;23104;-80
2022/07/29 09:36:56;;;;;;;2.00;0.77;;;37.60;41.30;35.20;101198;;;;569981;250;23147;-80
2022/07/29 09:39:27;;;;;;;3.58;1.25;;;36.40;42.50;34.30;101199;;;;572338;246;23056;-79
2022/07/29 09:42:00;;;;;;;0.60;0.60;;;35.60;44.10;34.30;101188;;;;559728;251;23156;-79
2022/07/29 09:44:24;;;;;;;5.28;0.70;;;35.60;43.70;34.80;101189;;;;562829;249;23083;-81
2022/07/29 09:46:55;;;;;;;0.57;0.57;;;35.80;43.80;34.50;101191;;;;559725;250;23107;-78
2022/07/29 09:49:23;;;;;;;7.80;1.02;;;35.80;43.60;34.80;101198;;;;560584;250;24133;-80
2022/07/29 09:51:59;;;;;;;3.58;0.70;;;35.80;44.10;36.10;101188;;;;571529;247;23116;-80
2022/07/29 09:54:27;;;;;;;1.02;0.60;;;36.80;43.40;37.20;101198;;;;577542;247;24123;-81
2022/07/29 09:56:55;;;;;;;1.62;1.10;;;38.00;41.60;36.90;101193;;;;567441;249;23112;-82
2022/07/29 09:59:26;;;;;;;3.60;0.90;;;38.10;41.60;37.60;101185;;;;571095;247;23117;-80
2022/07/29 10:01:54;;;;;;;1.52;0.80;;;38.80;40.70;37.80;101182;;;;571025;247;23104;-80
2022/07/29 10:04:23;;;;;;;4.05;1.02;;;40.00;40.20;38.60;101187;;;;570931;247;23077;-79
2022/07/29 10:07:00;;;;;;;3.35;1.23;;;41.20;38.90;39.90;101185;;;;570804;247;24150;-81
2022/07/29 10:09:28;;;;;;;1.25;0.73;;;41.20;38.80;39.90;101180;;;;566505;247;23092;-80
2022/07/29 10:12:09;;;;;;;3.87;1.98;;;41.60;37.80;39.20;101177;;;;571393;247;23130;-82
2022/07/29 10:14:39;;;;;;;0.90;0.70;;;41.10;38.30;39.40;101182;;;;569654;247;23074;-80
2022/07/29 10:17:09;;;;;;;1.30;0.80;;;40.80;38.30;38.80;101181;;;;571400;247;23094;-81
2022/07/29 10:19:33;;;;;;;2.20;0.65;;;40.80;38.20;38.30;101182;;;;571163;247;23257;-81
2022/07/29 10:22:01;;;;;;;3.33;0.80;;;40.30;38.50;37.20;101178;;;;566452;247;23125;-80
2022/07/29 10:24:29;;;;;;;0.70;0.70;;;39.20;39.20;37.00;101175;;;;567334;247;23184;-80
2022/07/29 10:27:01;;;;;;;2.25;0.70;;;38.80;39.80;36.80;101174;;;;569902;249;23115;-83
2022/07/29 10:29:25;;;;;;;9.73;2.03;;;38.70;39.70;36.60;101174;;;;591802;239;23115;-80
2022/07/29 10:32:11;;;;;;;7.12;1.67;;;38.40;40.20;36.70;101171;;;;567915;249;23128;-79
2022/07/29 10:34:48;;;;;;;3.67;1.00;;;38.40;40.20;36.20;101173;;;;581443;243;24158;-81
2022/07/29 10:37:25;;;;;;;1.50;0.93;;;38.10;40.10;35.60;101186;;;;579331;243;23085;-81
2022/07/29 10:43:20;;;;;;;3.92;0.60;;;36.80;40.60;33.90;101173;;;;580931;243;23226;-81
2022/07/29 10:45:49;;;;;;;2.58;0.60;;;34.80;41.10;32.90;101161;;;;578574;243;25345;-81
2022/07/29 10:48:17;;;;;;;1.95;0.80;;;34.80;41.10;32.10;101162;;;;579682;243;24137;-81
2022/07/29 10:51:03;;;;;;;1.75;0.70;;;32.40;42.40;31.00;101174;;;;579289;243;23084;-80
2022/07/29 10:53:50;;;;;;;0.77;0.45;;;30.90;44.00;29.80;101167;;;;581619;243;24159;-80
2022/07/29 10:56:33;;;;;;;21.05;2.37;;;30.70;43.90;28.80;101165;;;;579886;243;23077;-81
2022/07/29 10:59:26;;;;;;;5.77;0.90;;;29.50;46.00;27.70;101164;;;;581244;243;23076;-81
2022/07/29 11:01:56;;;;;;;32.33;3.20;;;28.40;47.70;26.60;101162;;;;581376;243;24064;-80
2022/07/29 11:04:46;;;;;;;11.73;1.37;;;27.30;49.20;26.00;101172;;;;580272;243;23099;-81
2022/07/29 11:07:16;;;;;;;9.30;1.00;;;26.60;50.00;25.00;101172;;;;580605;243;23082;-82
2022/07/29 11:09:42;;;;;;;14.73;1.63;;;25.70;50.30;24.30;101164;;;;576885;244;24162;-82
2022/07/29 11:12:37;;;;;;;1.50;0.57;;;25.00;51.70;23.60;101160;;;;576923;244;23089;-82
2022/07/29 11:15:21;;;;;;;2.20;0.50;;;24.40;53.30;23.00;101154;;;;587523;240;24122;-83
2022/07/29 11:17:56;;;;;;;7.40;0.50;;;23.80;54.50;22.70;101150;;;;571594;247;24088;-83
2022/07/29 11:20:34;;;;;;;0.20;0.20;;;23.30;55.70;22.30;101148;;;;576399;244;24086;-81
2022/07/29 11:23:18;;;;;;;3.50;0.73;;;22.60;57.80;22.00;101142;;;;577842;244;24110;-81
2022/07/29 11:26:10;;;;;;;4.97;0.43;;;22.50;57.10;21.70;101150;;;;576638;245;24079;-82
2022/07/29 11:28:56;;;;;;;9.70;1.97;;;22.30;58.20;21.50;101145;;;;586154;240;23152;-82